OCN431 LEMH-EDDM
Flight info
| Callsign | OCN431 |
|---|---|
| Flight time | 1h 44m |
| Altitude | 36000 |
| Route | ISTER UN851 LUNOR DCT NIVDA DCT OMEDA DCT RAPUR DCT TORTU DCT ERTEV DCT IBNAN DCT NOBMI DCT TAGIP DCT GUNGO DCT IVKAL T102 NINUR T101 BETOS BETOS1B |
| Aircraft | A320/M-SDE2E3FGIJ1LORWXYZ/HB1 |
Departure
| Time | 2026-05-05 15:39 |
|---|---|
| Airport | Menorca Airport (LEMH) |
Arrival
| Time | 2026-05-05 17:23 |
|---|---|
| Airport | Munich Airport (EDDM) |
| Time | Latitude | Longitude | Altitude | Speed | Heading |
|---|---|---|---|---|---|
| 2026-05-05 15:18 | 39.86466 | 4.22410 | 304 ft | 0 kts | 99° |
| 2026-05-05 15:28 | 39.86467 | 4.22402 | 306 ft | 4 kts | 99° |
| 2026-05-05 15:28 | 39.86471 | 4.22368 | 304 ft | 4 kts | 94° |
| 2026-05-05 15:29 | 39.86469 | 4.22335 | 302 ft | 4 kts | 63° |
| 2026-05-05 15:29 | 39.86454 | 4.22315 | 302 ft | 2 kts | 10° |
| 2026-05-05 15:29 | 39.86452 | 4.22314 | 302 ft | 0 kts | 9° |
| 2026-05-05 15:32 | 39.86456 | 4.22315 | 304 ft | 1 kts | 8° |
| 2026-05-05 15:32 | 39.86467 | 4.22317 | 304 ft | 2 kts | 6° |
| 2026-05-05 15:33 | 39.86479 | 4.22318 | 303 ft | 2 kts | 8° |
| 2026-05-05 15:33 | 39.86515 | 4.22309 | 305 ft | 10 kts | 330° |
| 2026-05-05 15:33 | 39.86541 | 4.22231 | 306 ft | 9 kts | 281° |
| 2026-05-05 15:33 | 39.86569 | 4.22177 | 304 ft | 6 kts | 332° |
| 2026-05-05 15:34 | 39.86605 | 4.22176 | 305 ft | 4 kts | 2° |
| 2026-05-05 15:34 | 39.86659 | 4.22185 | 305 ft | 9 kts | 9° |
| 2026-05-05 15:34 | 39.86711 | 4.22196 | 307 ft | 6 kts | 9° |
| 2026-05-05 15:34 | 39.86748 | 4.22204 | 306 ft | 4 kts | 9° |
| 2026-05-05 15:35 | 39.86818 | 4.22219 | 310 ft | 15 kts | 9° |
| 2026-05-05 15:35 | 39.86910 | 4.22240 | 308 ft | 12 kts | 9° |
| 2026-05-05 15:35 | 39.86986 | 4.22254 | 309 ft | 10 kts | 9° |
| 2026-05-05 15:35 | 39.87048 | 4.22264 | 310 ft | 10 kts | 8° |
| 2026-05-05 15:36 | 39.87150 | 4.22286 | 311 ft | 16 kts | 9° |
| 2026-05-05 15:36 | 39.87252 | 4.22308 | 312 ft | 14 kts | 9° |
| 2026-05-05 15:36 | 39.87339 | 4.22325 | 313 ft | 11 kts | 0° |
| 2026-05-05 15:36 | 39.87386 | 4.22266 | 313 ft | 9 kts | 287° |
| 2026-05-05 15:37 | 39.87394 | 4.22197 | 313 ft | 5 kts | 263° |
| 2026-05-05 15:37 | 39.87378 | 4.22151 | 314 ft | 6 kts | 248° |
| 2026-05-05 15:37 | 39.87349 | 4.22102 | 314 ft | 8 kts | 216° |
| 2026-05-05 15:37 | 39.87292 | 4.22078 | 313 ft | 9 kts | 190° |
| 2026-05-05 15:38 | 39.87222 | 4.22064 | 313 ft | 11 kts | 188° |
| 2026-05-05 15:38 | 39.87142 | 4.22046 | 313 ft | 13 kts | 189° |
| 2026-05-05 15:38 | 39.86945 | 4.22002 | 310 ft | 60 kts | 190° |
| 2026-05-05 15:38 | 39.86306 | 4.21867 | 302 ft | 123 kts | 190° |
| 2026-05-05 15:39 | 39.85350 | 4.21647 | 593 ft | 146 kts | 190° |
| 2026-05-05 15:39 | 39.84362 | 4.21438 | 1378 ft | 143 kts | 192° |
| 2026-05-05 15:39 | 39.83347 | 4.21245 | 1879 ft | 156 kts | 190° |
| 2026-05-05 15:39 | 39.82206 | 4.21013 | 2239 ft | 176 kts | 193° |
| 2026-05-05 15:40 | 39.80919 | 4.20735 | 2515 ft | 199 kts | 193° |
| 2026-05-05 15:40 | 39.79480 | 4.20421 | 2850 ft | 224 kts | 192° |
| 2026-05-05 15:40 | 39.77857 | 4.20069 | 3304 ft | 246 kts | 192° |
| 2026-05-05 15:40 | 39.76114 | 4.20128 | 4063 ft | 261 kts | 164° |
| 2026-05-05 15:41 | 39.74609 | 4.21503 | 4868 ft | 276 kts | 130° |
| 2026-05-05 15:41 | 39.73909 | 4.23851 | 5688 ft | 288 kts | 96° |
| 2026-05-05 15:41 | 39.74293 | 4.26424 | 6495 ft | 296 kts | 62° |
| 2026-05-05 15:41 | 39.75531 | 4.28569 | 7315 ft | 299 kts | 46° |
| 2026-05-05 15:42 | 39.76955 | 4.30527 | 8111 ft | 303 kts | 45° |
| 2026-05-05 15:42 | 39.78457 | 4.32492 | 8903 ft | 308 kts | 42° |
| 2026-05-05 15:42 | 39.80128 | 4.34289 | 9659 ft | 314 kts | 32° |
| 2026-05-05 15:42 | 39.82034 | 4.35683 | 10366 ft | 316 kts | 20° |
| 2026-05-05 15:43 | 39.84158 | 4.36557 | 10856 ft | 327 kts | 7° |
| 2026-05-05 15:43 | 39.86460 | 4.36826 | 11091 ft | 344 kts | 354° |
| 2026-05-05 15:43 | 39.88866 | 4.36518 | 11607 ft | 352 kts | 350° |
| 2026-05-05 15:43 | 39.91353 | 4.36736 | 11861 ft | 364 kts | 12° |
| 2026-05-05 15:44 | 39.93631 | 4.38211 | 11914 ft | 369 kts | 38° |
| 2026-05-05 15:44 | 39.95297 | 4.40755 | 11929 ft | 369 kts | 60° |
| 2026-05-05 15:44 | 39.96536 | 4.43646 | 11919 ft | 369 kts | 62° |
| 2026-05-05 15:44 | 39.97783 | 4.46565 | 11916 ft | 368 kts | 62° |
| 2026-05-05 15:45 | 39.99038 | 4.49483 | 11918 ft | 368 kts | 61° |
| 2026-05-05 15:45 | 40.00298 | 4.52399 | 11918 ft | 368 kts | 61° |
| 2026-05-05 15:45 | 40.01555 | 4.55309 | 11916 ft | 368 kts | 61° |
| 2026-05-05 15:45 | 40.02817 | 4.58229 | 11903 ft | 368 kts | 62° |
| 2026-05-05 15:46 | 40.04083 | 4.61154 | 12236 ft | 372 kts | 61° |
| 2026-05-05 15:46 | 40.05361 | 4.64108 | 13018 ft | 375 kts | 62° |
| 2026-05-05 15:46 | 40.06651 | 4.67092 | 13720 ft | 379 kts | 62° |
| 2026-05-05 15:46 | 40.07966 | 4.70105 | 14339 ft | 383 kts | 61° |
| 2026-05-05 15:47 | 40.09286 | 4.73087 | 14940 ft | 387 kts | 60° |
| 2026-05-05 15:47 | 40.10205 | 4.75155 | 15351 ft | 389 kts | 60° |
| 2026-05-05 15:47 | 40.12023 | 4.79239 | 16148 ft | 394 kts | 60° |
| 2026-05-05 15:47 | 40.13410 | 4.82363 | 16753 ft | 398 kts | 60° |
| 2026-05-05 15:48 | 40.14809 | 4.85520 | 17349 ft | 402 kts | 60° |
| 2026-05-05 15:48 | 40.16221 | 4.88715 | 17948 ft | 407 kts | 60° |
| 2026-05-05 15:48 | 40.17644 | 4.91938 | 18484 ft | 411 kts | 60° |
| 2026-05-05 15:48 | 40.19061 | 4.95150 | 18960 ft | 415 kts | 60° |
| 2026-05-05 15:49 | 40.20511 | 4.98439 | 19444 ft | 419 kts | 60° |
| 2026-05-05 15:49 | 40.21973 | 5.01766 | 19919 ft | 423 kts | 60° |
| 2026-05-05 15:49 | 40.23448 | 5.05127 | 20398 ft | 427 kts | 60° |
| 2026-05-05 15:49 | 40.24933 | 5.08516 | 20860 ft | 432 kts | 60° |
| 2026-05-05 15:50 | 40.26435 | 5.11950 | 21315 ft | 436 kts | 60° |
| 2026-05-05 15:50 | 40.27949 | 5.15414 | 21756 ft | 440 kts | 60° |
| 2026-05-05 15:50 | 40.29486 | 5.18933 | 22202 ft | 444 kts | 60° |
| 2026-05-05 15:50 | 40.31012 | 5.22429 | 22649 ft | 449 kts | 60° |
| 2026-05-05 15:51 | 40.32566 | 5.25998 | 23069 ft | 453 kts | 60° |
| 2026-05-05 15:51 | 40.34134 | 5.29607 | 23496 ft | 457 kts | 60° |
| 2026-05-05 15:51 | 40.35715 | 5.33250 | 23833 ft | 461 kts | 60° |
| 2026-05-05 15:51 | 40.37313 | 5.36918 | 24235 ft | 463 kts | 58° |
| 2026-05-05 15:52 | 40.39154 | 5.40395 | 24611 ft | 464 kts | 49° |
| 2026-05-05 15:52 | 40.41352 | 5.43510 | 24967 ft | 465 kts | 43° |
| 2026-05-05 15:52 | 40.43606 | 5.46513 | 25313 ft | 468 kts | 43° |
| 2026-05-05 15:52 | 40.45902 | 5.49578 | 25654 ft | 472 kts | 43° |
| 2026-05-05 15:53 | 40.48213 | 5.52675 | 25994 ft | 475 kts | 44° |
| 2026-05-05 15:53 | 40.50532 | 5.55793 | 26327 ft | 478 kts | 44° |
| 2026-05-05 15:53 | 40.52867 | 5.58936 | 26658 ft | 481 kts | 44° |
| 2026-05-05 15:53 | 40.55177 | 5.62053 | 26972 ft | 484 kts | 44° |
| 2026-05-05 15:54 | 40.57539 | 5.65242 | 27306 ft | 487 kts | 44° |
| 2026-05-05 15:54 | 40.59921 | 5.68463 | 27637 ft | 490 kts | 44° |
| 2026-05-05 15:54 | 40.62308 | 5.71689 | 27936 ft | 493 kts | 44° |
| 2026-05-05 15:54 | 40.64710 | 5.74941 | 28295 ft | 495 kts | 44° |
| 2026-05-05 15:55 | 40.67090 | 5.78163 | 28614 ft | 497 kts | 44° |
| 2026-05-05 15:55 | 40.69513 | 5.81454 | 28939 ft | 500 kts | 44° |
| 2026-05-05 15:55 | 40.71939 | 5.84760 | 29241 ft | 503 kts | 44° |
| 2026-05-05 15:55 | 40.74386 | 5.88093 | 29537 ft | 506 kts | 44° |
| 2026-05-05 15:56 | 40.76849 | 5.91445 | 29868 ft | 509 kts | 44° |
| 2026-05-05 15:56 | 40.79281 | 5.94766 | 30124 ft | 512 kts | 45° |
| 2026-05-05 15:56 | 40.81766 | 5.98164 | 30372 ft | 514 kts | 45° |
| 2026-05-05 15:56 | 40.84261 | 6.01570 | 30620 ft | 516 kts | 45° |
| 2026-05-05 15:57 | 40.86776 | 6.04997 | 30870 ft | 518 kts | 45° |
| 2026-05-05 15:57 | 40.89254 | 6.08378 | 31116 ft | 519 kts | 45° |
| 2026-05-05 15:57 | 40.91769 | 6.11823 | 31366 ft | 520 kts | 45° |
| 2026-05-05 15:57 | 40.94288 | 6.15282 | 31723 ft | 519 kts | 45° |
| 2026-05-05 15:58 | 40.95951 | 6.17567 | 31946 ft | 519 kts | 45° |
| 2026-05-05 15:58 | 40.99271 | 6.22134 | 32402 ft | 518 kts | 45° |
| 2026-05-05 15:58 | 41.00961 | 6.24461 | 32631 ft | 518 kts | 45° |
| 2026-05-05 15:58 | 41.03462 | 6.27906 | 32958 ft | 518 kts | 45° |
| 2026-05-05 15:59 | 41.05933 | 6.31321 | 33286 ft | 518 kts | 45° |
| 2026-05-05 15:59 | 41.08439 | 6.34789 | 33600 ft | 517 kts | 45° |
| 2026-05-05 15:59 | 41.10938 | 6.38250 | 33917 ft | 517 kts | 45° |
| 2026-05-05 15:59 | 41.13422 | 6.41691 | 34219 ft | 516 kts | 45° |
| 2026-05-05 16:00 | 41.15881 | 6.45099 | 34508 ft | 516 kts | 45° |
| 2026-05-05 16:00 | 41.18363 | 6.48544 | 34777 ft | 515 kts | 45° |
| 2026-05-05 16:00 | 41.20838 | 6.51987 | 35038 ft | 515 kts | 45° |
| 2026-05-05 16:00 | 41.23315 | 6.55440 | 35314 ft | 514 kts | 45° |
| 2026-05-05 16:01 | 41.25723 | 6.58893 | 35579 ft | 514 kts | 47° |
| 2026-05-05 16:01 | 41.28076 | 6.62494 | 35845 ft | 513 kts | 49° |
| 2026-05-05 16:01 | 41.30352 | 6.66165 | 35937 ft | 511 kts | 50° |
| 2026-05-05 16:02 | 41.34765 | 6.73538 | 35944 ft | 507 kts | 51° |
| 2026-05-05 16:02 | 41.39160 | 6.80813 | 35934 ft | 507 kts | 50° |
| 2026-05-05 16:03 | 41.43654 | 6.88057 | 35951 ft | 506 kts | 49° |
| 2026-05-05 16:03 | 41.48155 | 6.95288 | 35945 ft | 505 kts | 49° |
| 2026-05-05 16:04 | 41.52627 | 7.02546 | 35943 ft | 505 kts | 49° |
| 2026-05-05 16:04 | 41.57079 | 7.09811 | 35970 ft | 505 kts | 50° |
| 2026-05-05 16:05 | 41.61501 | 7.17047 | 35959 ft | 506 kts | 50° |
| 2026-05-05 16:05 | 41.65958 | 7.24353 | 35937 ft | 506 kts | 50° |
| 2026-05-05 16:06 | 41.70402 | 7.31664 | 35940 ft | 506 kts | 50° |
| 2026-05-05 16:06 | 41.74831 | 7.38951 | 35937 ft | 506 kts | 50° |
| 2026-05-05 16:07 | 41.79289 | 7.46287 | 35942 ft | 506 kts | 50° |
| 2026-05-05 16:07 | 41.83708 | 7.53590 | 35939 ft | 506 kts | 50° |
| 2026-05-05 16:08 | 41.88141 | 7.60948 | 35912 ft | 506 kts | 50° |
| 2026-05-05 16:08 | 41.92549 | 7.68277 | 35926 ft | 506 kts | 50° |
| 2026-05-05 16:09 | 41.96969 | 7.75638 | 35956 ft | 506 kts | 50° |
| 2026-05-05 16:09 | 42.01395 | 7.83027 | 35947 ft | 506 kts | 50° |
| 2026-05-05 16:10 | 42.05814 | 7.90427 | 35949 ft | 506 kts | 50° |
| 2026-05-05 16:10 | 42.10196 | 7.97800 | 35923 ft | 506 kts | 50° |
| 2026-05-05 16:11 | 42.14599 | 8.05228 | 35959 ft | 506 kts | 50° |
| 2026-05-05 16:12 | 42.23376 | 8.20032 | 35951 ft | 506 kts | 50° |
| 2026-05-05 16:13 | 42.35374 | 8.37095 | 35940 ft | 495 kts | 26° |
| 2026-05-05 16:13 | 42.41516 | 8.40962 | 35945 ft | 486 kts | 16° |
| 2026-05-05 16:14 | 42.54055 | 8.47924 | 35940 ft | 486 kts | 16° |
| 2026-05-05 16:15 | 42.66539 | 8.54880 | 35933 ft | 486 kts | 16° |
| 2026-05-05 16:16 | 42.79024 | 8.61888 | 35955 ft | 485 kts | 16° |
| 2026-05-05 16:17 | 42.88401 | 8.67163 | 35953 ft | 485 kts | 16° |
| 2026-05-05 16:18 | 42.97788 | 8.72457 | 35947 ft | 485 kts | 16° |
| 2026-05-05 16:19 | 43.07104 | 8.77737 | 35961 ft | 484 kts | 16° |
| 2026-05-05 16:19 | 43.16415 | 8.83015 | 35969 ft | 484 kts | 16° |
| 2026-05-05 16:20 | 43.28877 | 8.90131 | 35984 ft | 484 kts | 17° |
| 2026-05-05 16:22 | 43.44691 | 8.95835 | 35960 ft | 458 kts | 351° |
| 2026-05-05 16:23 | 43.57463 | 8.96008 | 35958 ft | 469 kts | 4° |
| 2026-05-05 16:23 | 43.60638 | 8.97376 | 35956 ft | 482 kts | 18° |
| 2026-05-05 16:23 | 43.66926 | 9.00364 | 35944 ft | 475 kts | 8° |
| 2026-05-05 16:24 | 43.73262 | 9.02897 | 35946 ft | 480 kts | 15° |
| 2026-05-05 16:25 | 43.82323 | 9.09193 | 35915 ft | 488 kts | 24° |
| 2026-05-05 16:25 | 43.91187 | 9.16076 | 35961 ft | 487 kts | 24° |
| 2026-05-05 16:26 | 44.03134 | 9.24976 | 35967 ft | 486 kts | 22° |
| 2026-05-05 16:27 | 44.09110 | 9.29410 | 35985 ft | 486 kts | 23° |
| 2026-05-05 16:27 | 44.15032 | 9.33835 | 35972 ft | 486 kts | 23° |
| 2026-05-05 16:28 | 44.20994 | 9.38320 | 35964 ft | 486 kts | 23° |
| 2026-05-05 16:28 | 44.26951 | 9.42828 | 35987 ft | 486 kts | 24° |
| 2026-05-05 16:29 | 44.32911 | 9.47329 | 35957 ft | 486 kts | 23° |
| 2026-05-05 16:29 | 44.38854 | 9.51820 | 35967 ft | 485 kts | 23° |
| 2026-05-05 16:30 | 44.44752 | 9.56281 | 35976 ft | 484 kts | 23° |
| 2026-05-05 16:30 | 44.50686 | 9.60790 | 35974 ft | 484 kts | 24° |
| 2026-05-05 16:31 | 44.56605 | 9.65313 | 35974 ft | 483 kts | 24° |
| 2026-05-05 16:31 | 44.62481 | 9.69797 | 35997 ft | 483 kts | 24° |
| 2026-05-05 16:32 | 44.68396 | 9.74313 | 35989 ft | 483 kts | 24° |
| 2026-05-05 16:32 | 44.74272 | 9.78824 | 35990 ft | 483 kts | 24° |
| 2026-05-05 16:33 | 44.80185 | 9.83375 | 36000 ft | 483 kts | 24° |
| 2026-05-05 16:33 | 44.86083 | 9.87919 | 35995 ft | 483 kts | 24° |
| 2026-05-05 16:34 | 44.91977 | 9.92475 | 35979 ft | 482 kts | 24° |
| 2026-05-05 16:34 | 44.97852 | 9.97024 | 35988 ft | 482 kts | 25° |
| 2026-05-05 16:35 | 45.03731 | 10.01585 | 35990 ft | 480 kts | 25° |
| 2026-05-05 16:35 | 45.09577 | 10.06145 | 35988 ft | 479 kts | 25° |
| 2026-05-05 16:36 | 45.15384 | 10.10688 | 35994 ft | 478 kts | 25° |
| 2026-05-05 16:36 | 45.21187 | 10.15324 | 35991 ft | 477 kts | 26° |
| 2026-05-05 16:37 | 45.25985 | 10.19189 | 35998 ft | 476 kts | 26° |
| 2026-05-05 16:37 | 45.31745 | 10.23834 | 36005 ft | 476 kts | 26° |
| 2026-05-05 16:38 | 45.37506 | 10.28471 | 35991 ft | 475 kts | 26° |
| 2026-05-05 16:38 | 45.43259 | 10.33109 | 35991 ft | 474 kts | 26° |
| 2026-05-05 16:39 | 45.48976 | 10.37735 | 35989 ft | 474 kts | 26° |
| 2026-05-05 16:39 | 45.54741 | 10.42408 | 35991 ft | 474 kts | 27° |
| 2026-05-05 16:40 | 45.60450 | 10.47045 | 35992 ft | 473 kts | 27° |
| 2026-05-05 16:40 | 45.66241 | 10.51535 | 35996 ft | 470 kts | 21° |
| 2026-05-05 16:41 | 45.72185 | 10.55346 | 36007 ft | 470 kts | 21° |
| 2026-05-05 16:41 | 45.78161 | 10.59174 | 36009 ft | 469 kts | 21° |
| 2026-05-05 16:42 | 45.84120 | 10.63016 | 36012 ft | 469 kts | 21° |
| 2026-05-05 16:42 | 45.90073 | 10.66870 | 36017 ft | 469 kts | 21° |
| 2026-05-05 16:43 | 45.95994 | 10.70815 | 36010 ft | 470 kts | 24° |
| 2026-05-05 16:43 | 46.01790 | 10.75236 | 35980 ft | 471 kts | 26° |
| 2026-05-05 16:44 | 46.07503 | 10.79816 | 35700 ft | 468 kts | 27° |
| 2026-05-05 16:44 | 46.10311 | 10.82046 | 35195 ft | 465 kts | 26° |
| 2026-05-05 16:44 | 46.13147 | 10.84267 | 34805 ft | 460 kts | 26° |
| 2026-05-05 16:45 | 46.15955 | 10.86437 | 34983 ft | 458 kts | 26° |
| 2026-05-05 16:45 | 46.18787 | 10.88607 | 35038 ft | 462 kts | 25° |
| 2026-05-05 16:45 | 46.24484 | 10.92967 | 35050 ft | 464 kts | 25° |
| 2026-05-05 16:46 | 46.30194 | 10.97391 | 35059 ft | 464 kts | 26° |
| 2026-05-05 16:46 | 46.35845 | 11.01808 | 35060 ft | 465 kts | 26° |
| 2026-05-05 16:47 | 46.41765 | 11.05428 | 34995 ft | 458 kts | 9° |
| 2026-05-05 16:47 | 46.44901 | 11.06099 | 35000 ft | 453 kts | 358° |
| 2026-05-05 16:47 | 46.48008 | 11.06025 | 34990 ft | 450 kts | 352° |
| 2026-05-05 16:48 | 46.54299 | 11.05545 | 34984 ft | 452 kts | 352° |
| 2026-05-05 16:48 | 46.60553 | 11.05094 | 34983 ft | 452 kts | 352° |
| 2026-05-05 16:49 | 46.66831 | 11.04640 | 34975 ft | 452 kts | 353° |
| 2026-05-05 16:49 | 46.73082 | 11.04199 | 34963 ft | 451 kts | 353° |
| 2026-05-05 16:50 | 46.79384 | 11.03732 | 34957 ft | 454 kts | 351° |
| 2026-05-05 16:50 | 46.85640 | 11.02814 | 34940 ft | 454 kts | 347° |
| 2026-05-05 16:51 | 46.91886 | 11.01479 | 34937 ft | 453 kts | 346° |
| 2026-05-05 16:51 | 46.98239 | 11.01382 | 34906 ft | 461 kts | 1° |
| 2026-05-05 16:52 | 47.01425 | 11.01853 | 34605 ft | 460 kts | 2° |
| 2026-05-05 16:52 | 47.04562 | 11.02344 | 34140 ft | 456 kts | 2° |
| 2026-05-05 16:52 | 47.07720 | 11.02845 | 33592 ft | 454 kts | 2° |
| 2026-05-05 16:52 | 47.10853 | 11.03341 | 33065 ft | 451 kts | 2° |
| 2026-05-05 16:53 | 47.13970 | 11.03829 | 32552 ft | 447 kts | 2° |
| 2026-05-05 16:53 | 47.17023 | 11.04298 | 32089 ft | 444 kts | 2° |
| 2026-05-05 16:53 | 47.20093 | 11.04763 | 31615 ft | 440 kts | 1° |
| 2026-05-05 16:53 | 47.23141 | 11.05224 | 31157 ft | 437 kts | 1° |
| 2026-05-05 16:54 | 47.26153 | 11.05679 | 30714 ft | 433 kts | 1° |
| 2026-05-05 16:54 | 47.29144 | 11.06132 | 30280 ft | 429 kts | 2° |
| 2026-05-05 16:54 | 47.32103 | 11.06582 | 29832 ft | 426 kts | 2° |
| 2026-05-05 16:54 | 47.35003 | 11.07022 | 29372 ft | 422 kts | 2° |
| 2026-05-05 16:55 | 47.37923 | 11.07468 | 28860 ft | 419 kts | 2° |
| 2026-05-05 16:55 | 47.40812 | 11.07910 | 28379 ft | 416 kts | 2° |
| 2026-05-05 16:55 | 47.43700 | 11.08349 | 27688 ft | 419 kts | 2° |
| 2026-05-05 16:55 | 47.46666 | 11.08796 | 26414 ft | 436 kts | 2° |
| 2026-05-05 16:56 | 47.49646 | 11.09252 | 25487 ft | 432 kts | 3° |
| 2026-05-05 16:56 | 47.52614 | 11.09716 | 24689 ft | 424 kts | 4° |
| 2026-05-05 16:56 | 47.55526 | 11.10358 | 23985 ft | 425 kts | 12° |
| 2026-05-05 16:56 | 47.58323 | 11.11855 | 23269 ft | 429 kts | 26° |
| 2026-05-05 16:57 | 47.60927 | 11.14039 | 22454 ft | 431 kts | 30° |
| 2026-05-05 16:57 | 47.63530 | 11.16299 | 21658 ft | 433 kts | 30° |
| 2026-05-05 16:57 | 47.66114 | 11.18545 | 20884 ft | 434 kts | 30° |
| 2026-05-05 16:57 | 47.68725 | 11.20815 | 20125 ft | 435 kts | 30° |
| 2026-05-05 16:58 | 47.71350 | 11.23098 | 19395 ft | 435 kts | 30° |
| 2026-05-05 16:58 | 47.74005 | 11.25244 | 18679 ft | 435 kts | 22° |
| 2026-05-05 16:58 | 47.76826 | 11.26858 | 18084 ft | 431 kts | 20° |
| 2026-05-05 16:58 | 47.79599 | 11.28401 | 17844 ft | 418 kts | 19° |
| 2026-05-05 16:59 | 47.82268 | 11.29883 | 17760 ft | 401 kts | 19° |
| 2026-05-05 16:59 | 47.84844 | 11.31313 | 17500 ft | 391 kts | 19° |
| 2026-05-05 16:59 | 47.87371 | 11.32704 | 16848 ft | 392 kts | 17° |
| 2026-05-05 16:59 | 47.90036 | 11.33550 | 16192 ft | 391 kts | 3° |
| 2026-05-05 17:00 | 47.92764 | 11.33795 | 15567 ft | 392 kts | 1° |
| 2026-05-05 17:00 | 47.95489 | 11.34022 | 14948 ft | 393 kts | 1° |
| 2026-05-05 17:00 | 47.98218 | 11.34253 | 14342 ft | 393 kts | 1° |
| 2026-05-05 17:00 | 48.00952 | 11.34485 | 13735 ft | 386 kts | 1° |
| 2026-05-05 17:01 | 48.03556 | 11.34711 | 13093 ft | 372 kts | 1° |
| 2026-05-05 17:01 | 48.06071 | 11.35367 | 12437 ft | 361 kts | 16° |
| 2026-05-05 17:01 | 48.08309 | 11.36926 | 11945 ft | 348 kts | 32° |
| 2026-05-05 17:01 | 48.10151 | 11.39048 | 11820 ft | 335 kts | 39° |
| 2026-05-05 17:02 | 48.12025 | 11.41306 | 11845 ft | 352 kts | 38° |
| 2026-05-05 17:02 | 48.13946 | 11.43605 | 11835 ft | 354 kts | 38° |
| 2026-05-05 17:02 | 48.15872 | 11.45910 | 11835 ft | 354 kts | 38° |
| 2026-05-05 17:02 | 48.17807 | 11.48231 | 11738 ft | 352 kts | 38° |
| 2026-05-05 17:03 | 48.19691 | 11.50500 | 11297 ft | 350 kts | 38° |
| 2026-05-05 17:03 | 48.21554 | 11.52806 | 11088 ft | 341 kts | 43° |
| 2026-05-05 17:03 | 48.23021 | 11.55504 | 10935 ft | 329 kts | 60° |
| 2026-05-05 17:03 | 48.23937 | 11.58583 | 10797 ft | 317 kts | 76° |
| 2026-05-05 17:04 | 48.24317 | 11.61799 | 10803 ft | 311 kts | 86° |
| 2026-05-05 17:04 | 48.24561 | 11.64965 | 10522 ft | 308 kts | 85° |
| 2026-05-05 17:04 | 48.24814 | 11.68159 | 10181 ft | 307 kts | 85° |
| 2026-05-05 17:04 | 48.25065 | 11.71352 | 9864 ft | 305 kts | 85° |
| 2026-05-05 17:05 | 48.25313 | 11.74520 | 9801 ft | 305 kts | 85° |
| 2026-05-05 17:05 | 48.25556 | 11.77647 | 9813 ft | 306 kts | 85° |
| 2026-05-05 17:05 | 48.25800 | 11.80824 | 9815 ft | 306 kts | 85° |
| 2026-05-05 17:05 | 48.26044 | 11.84004 | 9814 ft | 307 kts | 85° |
| 2026-05-05 17:06 | 48.26289 | 11.87180 | 9811 ft | 306 kts | 85° |
| 2026-05-05 17:06 | 48.26533 | 11.90364 | 9810 ft | 306 kts | 85° |
| 2026-05-05 17:06 | 48.26774 | 11.93541 | 9812 ft | 306 kts | 85° |
| 2026-05-05 17:06 | 48.27012 | 11.96716 | 9694 ft | 304 kts | 86° |
| 2026-05-05 17:07 | 48.27244 | 11.99827 | 9318 ft | 302 kts | 86° |
| 2026-05-05 17:07 | 48.27477 | 12.02955 | 8928 ft | 301 kts | 86° |
| 2026-05-05 17:07 | 48.27711 | 12.06074 | 8561 ft | 299 kts | 85° |
| 2026-05-05 17:07 | 48.27941 | 12.09176 | 8192 ft | 297 kts | 86° |
| 2026-05-05 17:08 | 48.28166 | 12.12255 | 7835 ft | 294 kts | 86° |
| 2026-05-05 17:08 | 48.28387 | 12.15306 | 7466 ft | 292 kts | 86° |
| 2026-05-05 17:08 | 48.28610 | 12.18328 | 7134 ft | 290 kts | 86° |
| 2026-05-05 17:08 | 48.28830 | 12.21343 | 6744 ft | 289 kts | 86° |
| 2026-05-05 17:09 | 48.29047 | 12.24348 | 6389 ft | 287 kts | 86° |
| 2026-05-05 17:09 | 48.29261 | 12.27329 | 6019 ft | 284 kts | 84° |
| 2026-05-05 17:09 | 48.29470 | 12.30236 | 5770 ft | 281 kts | 85° |
| 2026-05-05 17:09 | 48.29683 | 12.33192 | 5771 ft | 285 kts | 84° |
| 2026-05-05 17:10 | 48.29961 | 12.36141 | 5773 ft | 285 kts | 80° |
| 2026-05-05 17:10 | 48.30294 | 12.39081 | 5777 ft | 286 kts | 81° |
| 2026-05-05 17:10 | 48.30609 | 12.42047 | 5774 ft | 288 kts | 81° |
| 2026-05-05 17:10 | 48.30920 | 12.45009 | 5755 ft | 286 kts | 81° |
| 2026-05-05 17:11 | 48.31222 | 12.47951 | 5757 ft | 285 kts | 82° |
| 2026-05-05 17:11 | 48.31533 | 12.50904 | 5759 ft | 287 kts | 81° |
| 2026-05-05 17:11 | 48.31855 | 12.53865 | 5761 ft | 287 kts | 78° |
| 2026-05-05 17:11 | 48.32627 | 12.56545 | 5757 ft | 284 kts | 51° |
| 2026-05-05 17:12 | 48.34127 | 12.58441 | 5770 ft | 283 kts | 24° |
| 2026-05-05 17:12 | 48.35969 | 12.59227 | 5759 ft | 271 kts | 357° |
| 2026-05-05 17:12 | 48.37779 | 12.58681 | 5760 ft | 264 kts | 333° |
| 2026-05-05 17:12 | 48.39389 | 12.57429 | 5769 ft | 262 kts | 321° |
| 2026-05-05 17:13 | 48.40576 | 12.55365 | 5761 ft | 264 kts | 292° |
| 2026-05-05 17:13 | 48.41087 | 12.52737 | 5758 ft | 263 kts | 273° |
| 2026-05-05 17:13 | 48.41127 | 12.49981 | 5759 ft | 265 kts | 260° |
| 2026-05-05 17:13 | 48.40802 | 12.47252 | 5767 ft | 265 kts | 261° |
| 2026-05-05 17:14 | 48.40547 | 12.44533 | 5498 ft | 264 kts | 261° |
| 2026-05-05 17:14 | 48.40248 | 12.41830 | 5100 ft | 262 kts | 260° |
| 2026-05-05 17:14 | 48.39909 | 12.39163 | 4912 ft | 253 kts | 259° |
| 2026-05-05 17:14 | 48.39571 | 12.36538 | 4966 ft | 258 kts | 261° |
| 2026-05-05 17:15 | 48.39206 | 12.33875 | 4970 ft | 262 kts | 251° |
| 2026-05-05 17:15 | 48.38160 | 12.31644 | 4970 ft | 265 kts | 224° |
| 2026-05-05 17:15 | 48.36772 | 12.29795 | 4976 ft | 266 kts | 230° |
| 2026-05-05 17:15 | 48.35910 | 12.27382 | 4979 ft | 263 kts | 257° |
| 2026-05-05 17:16 | 48.35810 | 12.24689 | 4984 ft | 250 kts | 275° |
| 2026-05-05 17:16 | 48.35898 | 12.23001 | 4977 ft | 238 kts | 275° |
| 2026-05-05 17:16 | 48.36035 | 12.19891 | 4980 ft | 209 kts | 274° |
| 2026-05-05 17:16 | 48.36092 | 12.18465 | 5011 ft | 195 kts | 274° |
| 2026-05-05 17:17 | 48.36172 | 12.16438 | 5213 ft | 196 kts | 274° |
| 2026-05-05 17:17 | 48.36254 | 12.14423 | 5282 ft | 195 kts | 273° |
| 2026-05-05 17:17 | 48.36334 | 12.12416 | 5305 ft | 182 kts | 273° |
| 2026-05-05 17:17 | 48.36405 | 12.10642 | 5295 ft | 159 kts | 273° |
| 2026-05-05 17:18 | 48.36467 | 12.09065 | 5295 ft | 147 kts | 272° |
| 2026-05-05 17:18 | 48.36515 | 12.07544 | 5295 ft | 145 kts | 268° |
| 2026-05-05 17:18 | 48.36412 | 12.06034 | 5252 ft | 144 kts | 263° |
| 2026-05-05 17:18 | 48.36293 | 12.04517 | 4907 ft | 147 kts | 264° |
| 2026-05-05 17:19 | 48.36177 | 12.02997 | 4546 ft | 145 kts | 266° |
| 2026-05-05 17:19 | 48.36064 | 12.01502 | 4272 ft | 143 kts | 266° |
| 2026-05-05 17:19 | 48.35953 | 12.00016 | 4066 ft | 140 kts | 268° |
| 2026-05-05 17:19 | 48.35844 | 11.98567 | 3859 ft | 139 kts | 268° |
| 2026-05-05 17:20 | 48.35737 | 11.97137 | 3683 ft | 138 kts | 267° |
| 2026-05-05 17:20 | 48.35630 | 11.95706 | 3496 ft | 137 kts | 267° |
| 2026-05-05 17:20 | 48.35524 | 11.94290 | 3318 ft | 138 kts | 268° |
| 2026-05-05 17:20 | 48.35418 | 11.92874 | 3138 ft | 136 kts | 267° |
| 2026-05-05 17:21 | 48.35311 | 11.91462 | 2948 ft | 135 kts | 269° |
| 2026-05-05 17:21 | 48.35206 | 11.90059 | 2785 ft | 134 kts | 269° |
| 2026-05-05 17:21 | 48.35100 | 11.88650 | 2604 ft | 136 kts | 268° |
| 2026-05-05 17:22 | 48.34887 | 11.85842 | 2228 ft | 140 kts | 263° |
| 2026-05-05 17:22 | 48.34777 | 11.84392 | 2043 ft | 138 kts | 265° |
| 2026-05-05 17:22 | 48.34667 | 11.82949 | 1855 ft | 139 kts | 264° |
| 2026-05-05 17:22 | 48.34556 | 11.81490 | 1665 ft | 141 kts | 264° |
| 2026-05-05 17:23 | 48.34444 | 11.80025 | 1493 ft | 139 kts | 264° |
| 2026-05-05 17:23 | 48.34349 | 11.78771 | 1474 ft | 97 kts | 263° |
| 2026-05-05 17:23 | 48.34291 | 11.78022 | 1475 ft | 47 kts | 263° |
| 2026-05-05 17:23 | 48.34263 | 11.77640 | 1472 ft | 35 kts | 268° |
| 2026-05-05 17:24 | 48.34263 | 11.77283 | 1485 ft | 33 kts | 279° |
| 2026-05-05 17:24 | 48.34336 | 11.77009 | 1480 ft | 19 kts | 312° |
| 2026-05-05 17:24 | 48.34375 | 11.76850 | 1484 ft | 0 kts | 294° |
| 2026-05-05 17:26 | 48.34377 | 11.76844 | 1485 ft | 2 kts | 294° |
| 2026-05-05 17:26 | 48.34381 | 11.76829 | 1476 ft | 1 kts | 294° |
| 2026-05-05 17:26 | 48.34382 | 11.76824 | 1479 ft | 0 kts | 294° |
| 2026-05-05 17:26 | 48.34383 | 11.76823 | 1479 ft | 1 kts | 294° |
| 2026-05-05 17:27 | 48.34412 | 11.76742 | 1476 ft | 13 kts | 309° |
| 2026-05-05 17:27 | 48.34497 | 11.76695 | 1473 ft | 5 kts | 352° |
| 2026-05-05 17:27 | 48.34522 | 11.76690 | 1485 ft | 3 kts | 352° |
| 2026-05-05 17:27 | 48.34538 | 11.76687 | 1475 ft | 2 kts | 352° |
| 2026-05-05 17:28 | 48.34546 | 11.76686 | 1479 ft | 1 kts | 352° |
| 2026-05-05 17:28 | 48.34547 | 11.76685 | 1480 ft | 0 kts | 352° |
| 2026-05-05 17:31 | 48.34549 | 11.76685 | 1480 ft | 0 kts | 352° |
| 2026-05-05 17:32 | 48.34571 | 11.76681 | 1485 ft | 6 kts | 353° |
| 2026-05-05 17:32 | 48.34603 | 11.76682 | 1478 ft | 2 kts | 41° |
| 2026-05-05 17:32 | 48.34591 | 11.76737 | 1485 ft | 16 kts | 108° |
| 2026-05-05 17:32 | 48.34588 | 11.76920 | 1481 ft | 18 kts | 82° |
| 2026-05-05 17:33 | 48.34606 | 11.77121 | 1485 ft | 20 kts | 83° |
| 2026-05-05 17:33 | 48.34622 | 11.77339 | 1482 ft | 22 kts | 84° |
| 2026-05-05 17:33 | 48.34640 | 11.77575 | 1481 ft | 23 kts | 83° |
| 2026-05-05 17:33 | 48.34660 | 11.77819 | 1485 ft | 21 kts | 83° |
| 2026-05-05 17:34 | 48.34678 | 11.78048 | 1485 ft | 23 kts | 84° |
| 2026-05-05 17:34 | 48.34694 | 11.78294 | 1485 ft | 24 kts | 83° |
| 2026-05-05 17:34 | 48.34714 | 11.78540 | 1482 ft | 24 kts | 83° |
| 2026-05-05 17:34 | 48.34736 | 11.78798 | 1479 ft | 26 kts | 83° |
| 2026-05-05 17:35 | 48.34757 | 11.79073 | 1481 ft | 25 kts | 84° |
| 2026-05-05 17:35 | 48.34772 | 11.79306 | 1477 ft | 16 kts | 83° |
| 2026-05-05 17:35 | 48.34780 | 11.79423 | 1485 ft | 10 kts | 83° |
| 2026-05-05 17:35 | 48.34793 | 11.79519 | 1481 ft | 9 kts | 63° |
| 2026-05-05 17:36 | 48.34839 | 11.79556 | 1483 ft | 7 kts | 4° |
| 2026-05-05 17:36 | 48.34845 | 11.79556 | 1482 ft | 0 kts | 1° |
| 2026-05-05 17:36 | 48.34860 | 11.79555 | 1485 ft | 9 kts | 359° |
| 2026-05-05 17:36 | 48.34893 | 11.79552 | 1480 ft | 0 kts | 354° |
| 2026-05-05 17:37 | 48.34910 | 11.79549 | 1486 ft | 10 kts | 354° |
| 2026-05-05 17:37 | 48.34989 | 11.79572 | 1477 ft | 13 kts | 30° |
| 2026-05-05 17:38 | 48.34997 | 11.79579 | 1481 ft | 1 kts | 31° |
| 2026-05-05 17:38 | 48.35033 | 11.79593 | 1473 ft | 0 kts | 356° |
| 2026-05-05 17:40 | 48.35057 | 11.79589 | 1485 ft | 5 kts | 354° |
| 2026-05-05 17:40 | 48.35112 | 11.79581 | 1483 ft | 9 kts | 354° |
| 2026-05-05 17:41 | 48.35153 | 11.79575 | 1474 ft | 3 kts | 354° |
| 2026-05-05 17:41 | 48.35165 | 11.79574 | 1479 ft | 0 kts | 354° |
| 2026-05-05 17:41 | 48.35173 | 11.79566 | 1482 ft | 3 kts | 323° |
| 2026-05-05 17:41 | 48.35177 | 11.79530 | 1485 ft | 3 kts | 269° |
| 2026-05-05 17:42 | 48.35176 | 11.79505 | 1482 ft | 2 kts | 264° |
| 2026-05-05 17:42 | 48.35173 | 11.79460 | 1485 ft | 5 kts | 268° |
| 2026-05-05 17:42 | 48.35187 | 11.79431 | 1472 ft | 3 kts | 320° |
| 2026-05-05 17:42 | 48.35198 | 11.79419 | 1478 ft | 2 kts | 323° |
| 2026-05-05 17:43 | 48.35207 | 11.79378 | 1483 ft | 5 kts | 250° |
| 2026-05-05 17:43 | 48.35201 | 11.79336 | 1485 ft | 3 kts | 263° |
| 2026-05-05 17:43 | 48.35201 | 11.79335 | 1485 ft | 0 kts | 263° |